createdAt,value
2019-03-23T00:02:23.473Z,8.57
2019-03-23T00:04:52.696Z,8.03
2019-03-23T00:07:21.980Z,8.30
2019-03-23T00:09:51.665Z,8.23
2019-03-23T00:12:30.354Z,8.63
2019-03-23T00:14:59.880Z,7.90
2019-03-23T00:17:32.195Z,8.60
2019-03-23T00:20:01.770Z,7.93
2019-03-23T00:22:40.073Z,8.27
2019-03-23T00:25:09.323Z,7.90
2019-03-23T00:27:38.569Z,7.87
2019-03-23T00:30:09.222Z,8.20
2019-03-23T00:32:50.015Z,8.50
2019-03-23T00:35:19.029Z,8.10
2019-03-23T00:37:48.325Z,8.83
2019-03-23T00:40:17.645Z,8.70
2019-03-23T00:42:58.141Z,9.27
2019-03-23T00:45:27.475Z,10.10
2019-03-23T00:47:58.208Z,9.73
2019-03-23T00:50:27.782Z,9.00
2019-03-23T00:52:59.396Z,9.40
2019-03-23T00:55:30.437Z,9.83
2019-03-23T00:57:59.764Z,9.73
2019-03-23T01:00:29.082Z,9.97
2019-03-23T01:03:08.566Z,10.57
2019-03-23T01:05:37.784Z,10.43
2019-03-23T01:08:07.046Z,10.10
2019-03-23T01:10:38.350Z,11.13
2019-03-23T01:13:18.145Z,10.37
2019-03-23T01:15:48.211Z,11.43
2019-03-23T01:18:17.581Z,10.80
2019-03-23T01:20:49.930Z,10.50
2019-03-23T01:23:29.390Z,10.33
2019-03-23T01:26:03.431Z,10.37
2019-03-23T01:28:32.757Z,11.20
2019-03-23T01:31:01.988Z,9.83
2019-03-23T01:33:40.467Z,11.27
2019-03-23T01:36:09.779Z,11.03
2019-03-23T01:38:39.049Z,11.17
2019-03-23T01:41:09.412Z,11.03
2019-03-23T01:43:47.781Z,10.73
2019-03-23T01:46:17.041Z,10.17
2019-03-23T01:48:46.292Z,10.70
2019-03-23T01:51:15.550Z,11.57
2019-03-23T01:53:55.110Z,11.37
2019-03-23T01:56:24.374Z,10.80
2019-03-23T01:58:53.983Z,10.53
2019-03-23T02:01:23.209Z,10.20
2019-03-23T02:04:06.798Z,10.63
2019-03-23T02:06:37.686Z,10.57
2019-03-23T02:09:07.899Z,10.73
2019-03-23T02:11:37.224Z,11.10
2019-03-23T02:14:15.835Z,10.57
2019-03-23T02:16:45.088Z,11.33
2019-03-23T02:19:15.126Z,10.30
2019-03-23T02:21:53.525Z,11.00
2019-03-23T02:24:27.361Z,10.53
2019-03-23T02:26:56.889Z,10.87
2019-03-23T02:29:26.268Z,10.07
2019-03-23T02:32:06.753Z,10.30
2019-03-23T02:34:36.025Z,9.60
2019-03-23T02:37:07.444Z,10.20
2019-03-23T02:39:39.752Z,10.80
2019-03-23T02:42:18.160Z,9.33
2019-03-23T02:44:50.540Z,10.37
2019-03-23T02:47:20.305Z,9.73
2019-03-23T02:49:51.974Z,10.27
2019-03-23T02:52:30.069Z,9.53
2019-03-23T02:55:02.117Z,9.60
2019-03-23T02:57:31.361Z,9.60
2019-03-23T03:00:00.554Z,9.67
2019-03-23T03:02:38.881Z,9.33
2019-03-23T03:05:08.962Z,9.90
2019-03-23T03:07:42.384Z,9.13
2019-03-23T03:10:09.443Z,8.70
2019-03-23T03:12:38.712Z,9.53
2019-03-23T03:15:08.311Z,8.80
2019-03-23T03:17:37.534Z,9.77
2019-03-23T03:20:08.036Z,9.80
2019-03-23T03:22:47.385Z,9.20
2019-03-23T03:25:16.569Z,8.80
2019-03-23T03:27:46.189Z,9.03
2019-03-23T03:30:15.440Z,9.20
2019-03-23T03:32:53.935Z,9.10
2019-03-23T03:35:23.488Z,9.03
2019-03-23T03:37:57.007Z,8.97
2019-03-23T03:40:23.886Z,8.80
2019-03-23T03:43:02.617Z,8.83
2019-03-23T03:45:31.838Z,8.83
2019-03-23T03:48:01.423Z,9.73
2019-03-23T03:50:30.875Z,9.50
2019-03-23T03:53:10.028Z,9.47
2019-03-23T03:55:39.233Z,9.80
2019-03-23T03:58:08.429Z,9.10
2019-03-23T04:00:37.644Z,10.63
2019-03-23T04:03:16.186Z,10.03
2019-03-23T04:05:45.689Z,9.10
2019-03-23T04:08:14.898Z,11.00
2019-03-23T04:10:47.158Z,11.50
2019-03-23T04:13:25.616Z,10.70
2019-03-23T04:15:54.800Z,11.73
2019-03-23T04:18:23.986Z,10.83
2019-03-23T04:20:53.199Z,10.90
2019-03-23T04:23:31.759Z,11.07
2019-03-23T04:26:01.044Z,12.47
2019-03-23T04:28:30.238Z,14.37
2019-03-23T04:30:59.483Z,15.83
2019-03-23T04:33:37.888Z,15.13
2019-03-23T04:36:07.085Z,12.33
2019-03-23T04:38:38.970Z,13.73
2019-03-23T04:41:08.168Z,11.73
2019-03-23T04:43:46.854Z,13.17
2019-03-23T04:46:16.109Z,13.23
2019-03-23T04:48:45.569Z,12.10
2019-03-23T04:51:15.017Z,12.40
2019-03-23T04:53:53.565Z,12.93
2019-03-23T04:56:23.115Z,13.33
2019-03-23T04:58:52.322Z,12.67
2019-03-23T05:01:22.138Z,12.40
2019-03-23T05:04:00.696Z,12.80
2019-03-23T05:06:29.886Z,13.07
2019-03-23T05:09:01.567Z,12.37
2019-03-23T05:11:30.837Z,12.43
2019-03-23T05:14:09.309Z,11.73
2019-03-23T05:16:38.840Z,12.57
2019-03-23T05:19:08.065Z,13.30
2019-03-23T05:21:37.922Z,11.80
2019-03-23T05:24:16.264Z,12.83
2019-03-23T05:26:45.476Z,12.23
2019-03-23T05:29:14.728Z,11.47
2019-03-23T05:31:46.334Z,10.17
2019-03-23T05:34:24.722Z,10.03
2019-03-23T05:36:54.201Z,10.73
2019-03-23T05:39:23.683Z,10.17
2019-03-23T05:41:52.943Z,10.13
2019-03-23T05:44:34.518Z,9.83
2019-03-23T05:47:04.022Z,10.17
2019-03-23T05:49:33.242Z,9.23
2019-03-23T05:52:02.996Z,10.23
2019-03-23T05:54:42.086Z,10.33
2019-03-23T05:57:14.183Z,10.03
2019-03-23T05:59:46.449Z,10.40
2019-03-23T06:02:15.647Z,10.73
2019-03-23T06:07:42.076Z,9.90
2019-03-23T06:10:11.766Z,9.80
2019-03-23T06:12:41.130Z,10.50
2019-03-23T06:15:19.629Z,9.47
2019-03-23T06:17:48.892Z,9.90
2019-03-23T06:20:18.150Z,10.83
2019-03-23T06:22:47.310Z,9.67
2019-03-23T06:25:25.983Z,9.73
2019-03-23T06:27:56.291Z,8.57
2019-03-23T06:30:27.633Z,9.10
2019-03-23T06:32:59.316Z,9.00
2019-03-23T06:35:40.120Z,8.20
2019-03-23T06:38:09.649Z,9.37
2019-03-23T06:40:42.030Z,10.30
2019-03-23T06:43:16.166Z,11.87
2019-03-23T06:45:57.149Z,8.87
2019-03-23T06:48:30.736Z,8.63
2019-03-23T06:50:59.968Z,9.03
2019-03-23T06:53:31.290Z,9.97
2019-03-23T06:56:10.340Z,9.53
2019-03-23T06:58:40.445Z,9.37
2019-03-23T07:01:09.761Z,9.37
2019-03-23T07:03:40.722Z,9.57
2019-03-23T07:06:20.380Z,10.00
2019-03-23T07:08:49.695Z,10.23
2019-03-23T07:11:19.094Z,9.93
2019-03-23T07:13:54.920Z,13.20
2019-03-23T07:16:36.266Z,13.57
2019-03-23T07:19:06.929Z,15.47
2019-03-23T07:21:36.227Z,11.90
2019-03-23T07:24:07.639Z,12.03
2019-03-23T07:26:46.808Z,10.80
2019-03-23T07:29:16.265Z,12.37
2019-03-23T07:31:45.625Z,14.97
2019-03-23T07:34:15.511Z,17.80
2019-03-23T07:36:54.033Z,13.53
2019-03-23T07:39:28.238Z,13.13
2019-03-23T07:41:54.814Z,13.30
2019-03-23T07:44:24.195Z,12.23
2019-03-23T07:47:09.763Z,12.90
2019-03-23T07:49:39.224Z,12.83
2019-03-23T07:52:08.474Z,13.77
2019-03-23T07:54:37.766Z,12.03
2019-03-23T07:57:16.219Z,12.20
2019-03-23T07:59:45.479Z,11.70
2019-03-23T08:02:14.848Z,12.60
2019-03-23T08:04:45.272Z,12.07
2019-03-23T08:07:50.473Z,12.10
2019-03-23T08:10:28.184Z,12.47
2019-03-23T08:13:05.199Z,14.57
2019-03-23T08:18:44.545Z,12.50
2019-03-23T08:21:13.893Z,14.10
2019-03-23T08:23:49.870Z,14.67
2019-03-23T08:27:33.061Z,14.90
2019-03-23T08:45:34.558Z,17.45
2019-03-23T08:48:15.941Z,17.87
2019-03-23T08:50:45.292Z,15.90
2019-03-23T08:53:15.667Z,15.08
2019-03-23T08:58:43.710Z,17.90
2019-03-23T11:22:26.269Z,22.95
2019-03-23T11:24:55.863Z,23.20
2019-03-23T11:27:34.488Z,22.98
2019-03-23T11:30:04.016Z,22.98
2019-03-23T11:32:36.741Z,26.50
2019-03-23T11:35:12.541Z,23.35
2019-03-23T11:40:30.995Z,23.27
2019-03-23T11:43:02.462Z,24.05
2019-03-23T11:45:31.836Z,25.35
2019-03-23T11:48:03.334Z,24.07
2019-03-23T11:50:34.809Z,23.62
2019-03-23T12:21:22.939Z,25.32
2019-03-23T12:24:03.268Z,22.85
2019-03-23T13:18:37.265Z,22.98
2019-03-23T13:21:12.464Z,22.58
2019-03-23T13:23:42.107Z,20.62
2019-03-23T13:26:14.114Z,21.73
2019-03-23T13:28:52.651Z,21.37
2019-03-23T13:31:32.646Z,20.08
2019-03-23T13:50:12.927Z,21.53
2019-03-23T13:53:31.776Z,21.70
2019-03-23T13:56:37.815Z,21.67
2019-03-23T13:59:29.952Z,21.77
2019-03-23T14:02:02.338Z,20.57
2019-03-23T14:04:39.937Z,22.30
2019-03-23T14:07:30.952Z,21.43
2019-03-23T14:09:44.792Z,20.93
2019-03-23T14:12:31.684Z,22.30
2019-03-23T14:15:03.235Z,22.93
2019-03-23T14:17:44.665Z,22.77
2019-03-23T14:20:18.715Z,23.33
2019-03-23T14:22:50.269Z,22.43
2019-03-23T14:25:21.327Z,22.20
2019-03-23T14:28:02.877Z,21.17
2019-03-23T14:30:32.131Z,21.90
2019-03-23T14:33:01.361Z,23.10
2019-03-23T14:35:31.912Z,22.70
2019-03-23T14:38:10.202Z,21.43
2019-03-23T14:40:41.318Z,22.80
2019-03-23T14:43:10.481Z,21.83
2019-03-23T14:45:39.722Z,22.60
2019-03-23T14:48:21.553Z,21.63
2019-03-23T14:50:53.233Z,20.40
2019-03-23T14:53:25.561Z,21.10
2019-03-23T14:55:55.069Z,18.63
2019-03-23T15:01:29.533Z,20.93
2019-03-23T15:04:17.867Z,20.37
2019-03-23T15:06:55.355Z,20.40
2019-03-23T15:09:24.808Z,19.27
2019-03-23T15:11:57.023Z,20.30
2019-03-23T15:14:28.972Z,19.93
2019-03-23T15:16:59.549Z,19.13
2019-03-23T15:19:51.762Z,19.87
2019-03-23T15:22:23.462Z,20.03
2019-03-23T15:25:14.166Z,18.53
2019-03-23T15:27:45.859Z,19.87
2019-03-23T15:30:44.310Z,20.87
2019-03-23T15:33:16.988Z,19.27
2019-03-23T15:35:48.843Z,20.07
2019-03-23T15:38:35.185Z,20.83
2019-03-23T15:41:04.631Z,19.90
2019-03-23T15:43:34.914Z,20.93
2019-03-23T15:46:06.651Z,20.23
2019-03-23T15:51:21.549Z,22.20
2019-03-23T15:53:53.210Z,29.60
2019-03-23T15:56:30.781Z,22.97
2019-03-23T15:59:10.060Z,19.10
2019-03-23T16:01:39.269Z,18.73
2019-03-23T16:04:08.767Z,19.67
2019-03-23T16:07:17.941Z,19.30
2019-03-23T16:12:34.804Z,19.33
2019-03-23T16:15:03.802Z,19.10
2019-03-23T16:17:33.074Z,17.33
2019-03-23T16:22:54.974Z,16.47
2019-03-23T16:25:24.332Z,16.63
2019-03-23T16:27:53.530Z,18.33
2019-03-23T16:30:39.723Z,17.57
2019-03-23T16:33:09.084Z,18.37
2019-03-23T16:35:38.321Z,18.30
2019-03-23T16:38:11.018Z,18.43
2019-03-23T16:53:08.755Z,17.63
2019-03-23T17:01:50.137Z,13.00
2019-03-23T17:04:23.855Z,15.67
2019-03-23T17:06:55.405Z,16.07
2019-03-23T17:09:35.634Z,13.37
2019-03-23T17:12:07.472Z,15.27
2019-03-23T17:14:38.028Z,14.43
2019-03-23T17:17:29.588Z,15.43
2019-03-23T17:20:09.942Z,15.33
2019-03-23T17:22:40.410Z,15.37
2019-03-23T17:25:09.759Z,14.50
2019-03-23T17:27:39.101Z,14.77
2019-03-23T17:30:17.321Z,13.87
2019-03-23T17:32:46.619Z,12.73
2019-03-23T17:35:16.192Z,13.40
2019-03-23T17:37:45.718Z,13.37
2019-03-23T17:40:24.515Z,14.67
2019-03-23T17:42:54.324Z,13.37
2019-03-23T17:45:28.537Z,13.20
2019-03-23T17:48:02.588Z,12.97
2019-03-23T17:50:41.085Z,11.57
2019-03-23T17:53:10.771Z,13.40
2019-03-23T17:55:40.776Z,14.50
2019-03-23T17:58:10.029Z,14.67
2019-03-23T18:00:48.354Z,14.17
2019-03-23T18:03:17.647Z,14.03
2019-03-23T18:05:47.264Z,13.40
2019-03-23T18:08:16.562Z,13.97
2019-03-23T18:10:57.571Z,13.57
2019-03-23T18:13:28.526Z,15.90
2019-03-23T18:15:59.677Z,17.53
2019-03-23T18:18:32.447Z,17.80
2019-03-23T18:21:11.088Z,14.13
2019-03-23T18:23:53.489Z,15.70
2019-03-23T18:26:23.022Z,15.20
2019-03-23T18:28:52.556Z,13.97
2019-03-23T18:31:30.970Z,14.03
2019-03-23T18:34:03.527Z,16.20
2019-03-23T18:36:32.843Z,16.20
2019-03-23T18:39:02.027Z,17.83
2019-03-23T18:41:40.402Z,16.07
2019-03-23T18:44:16.163Z,17.80
2019-03-23T18:46:40.922Z,16.77
2019-03-23T18:49:10.435Z,17.23
2019-03-23T18:51:48.574Z,17.13
2019-03-23T18:54:17.946Z,15.57
2019-03-23T18:56:47.172Z,17.27
2019-03-23T18:59:16.379Z,18.60
2019-03-23T19:01:55.283Z,16.50
2019-03-23T19:04:24.550Z,17.43
2019-03-23T19:06:53.781Z,17.27
2019-03-23T19:09:23.327Z,19.30
2019-03-23T19:12:08.181Z,17.37
2019-03-23T19:14:37.462Z,17.43
2019-03-23T19:17:06.780Z,17.37
2019-03-23T19:19:36.114Z,18.50
2019-03-23T19:22:16.817Z,17.73
2019-03-23T19:24:46.069Z,15.93
2019-03-23T19:27:20.811Z,14.93
2019-03-23T19:29:51.703Z,16.80
2019-03-23T19:32:30.406Z,17.33
2019-03-23T19:35:02.095Z,15.00
2019-03-23T19:37:31.869Z,17.37
2019-03-23T19:40:01.608Z,19.73
2019-03-23T19:42:30.919Z,19.70
2019-03-23T19:45:03.073Z,18.23
2019-03-23T19:47:32.419Z,19.27
2019-03-23T19:50:01.895Z,18.80
2019-03-23T19:52:40.449Z,16.87
2019-03-23T19:55:09.677Z,16.53
2019-03-23T19:57:39.489Z,19.50
2019-03-23T20:00:09.417Z,19.57
2019-03-23T20:02:48.020Z,22.73
2019-03-23T20:05:17.490Z,17.63
2019-03-23T20:07:47.167Z,18.40
2019-03-23T20:10:17.084Z,18.20
2019-03-23T20:12:55.511Z,17.17
2019-03-23T20:15:25.041Z,17.37
2019-03-23T20:17:54.551Z,16.20
2019-03-23T20:20:24.116Z,17.57
2019-03-23T20:23:02.438Z,17.37
2019-03-23T20:25:31.877Z,17.63
2019-03-23T20:28:01.362Z,19.27
2019-03-23T20:30:30.864Z,18.53
2019-03-23T20:33:19.059Z,18.37
2019-03-23T20:35:40.709Z,18.33
2019-03-23T20:38:09.945Z,20.93
2019-03-23T20:40:39.419Z,18.53
2019-03-23T20:43:17.631Z,18.53
2019-03-23T20:45:46.888Z,18.70
2019-03-23T20:48:16.810Z,18.80
2019-03-23T20:50:46.268Z,18.60
2019-03-23T20:53:24.690Z,17.93
2019-03-23T20:55:53.935Z,18.10
2019-03-23T20:58:23.154Z,17.23
2019-03-23T21:00:52.901Z,16.63
2019-03-23T21:03:38.141Z,16.77
2019-03-23T21:06:07.836Z,18.27
2019-03-23T21:08:37.658Z,18.87
2019-03-23T21:11:06.994Z,18.70
2019-03-23T21:13:36.676Z,20.87
2019-03-23T21:16:06.226Z,19.47
2019-03-23T21:18:37.727Z,20.97
2019-03-23T21:21:07.261Z,17.77
2019-03-23T21:23:46.320Z,21.27
2019-03-23T21:26:16.152Z,22.17
2019-03-23T21:28:45.926Z,19.33
2019-03-23T21:31:20.714Z,22.47
2019-03-23T21:33:59.308Z,21.07
2019-03-23T21:36:30.939Z,21.83
2019-03-23T21:39:00.523Z,21.30
2019-03-23T21:41:30.274Z,20.50
2019-03-23T21:44:09.055Z,19.30
2019-03-23T21:46:38.271Z,19.73
2019-03-23T21:49:07.770Z,19.40
2019-03-23T21:51:37.225Z,18.87
2019-03-23T21:54:15.882Z,19.63
2019-03-23T21:56:45.290Z,19.97
2019-03-23T21:59:14.499Z,19.90
2019-03-23T22:01:44.581Z,19.67
2019-03-23T22:04:30.982Z,20.47
2019-03-23T22:07:00.678Z,19.20
2019-03-23T22:09:29.956Z,20.37
2019-03-23T22:11:59.271Z,21.23
2019-03-23T22:14:41.992Z,23.27
2019-03-23T22:17:09.426Z,22.37
2019-03-23T22:19:38.924Z,22.50
2019-03-23T22:22:08.406Z,25.67
2019-03-23T22:24:38.837Z,23.93
2019-03-23T22:27:08.295Z,27.60
2019-03-23T22:29:37.549Z,24.20
2019-03-23T22:32:07.204Z,23.00
2019-03-23T22:34:45.720Z,22.83
2019-03-23T22:37:14.988Z,32.40
2019-03-23T22:39:44.327Z,31.77
2019-03-23T22:42:14.820Z,30.07
2019-03-23T22:44:53.472Z,32.63
2019-03-23T22:47:25.743Z,35.47
2019-03-23T22:49:54.984Z,35.07
2019-03-23T22:52:24.282Z,36.83
2019-03-23T22:57:37.939Z,37.57
2019-03-23T23:00:07.652Z,38.20
2019-03-23T23:02:36.982Z,36.37
2019-03-23T23:05:15.862Z,38.07
2019-03-23T23:07:45.691Z,37.40
2019-03-23T23:10:14.983Z,36.77
2019-03-23T23:12:44.393Z,36.97
2019-03-23T23:15:25.996Z,42.37
2019-03-23T23:17:55.249Z,38.23
2019-03-23T23:20:24.512Z,37.60
2019-03-23T23:22:54.017Z,39.07
2019-03-23T23:25:23.398Z,41.77
2019-03-23T23:27:52.794Z,39.50
2019-03-23T23:30:22.339Z,39.60
2019-03-23T23:32:51.814Z,36.73
2019-03-23T23:35:30.719Z,36.73
2019-03-23T23:37:59.963Z,40.20
2019-03-23T23:40:29.520Z,38.57
2019-03-23T23:42:58.928Z,36.17
2019-03-23T23:45:38.531Z,38.47
2019-03-23T23:48:10.640Z,37.97
2019-03-23T23:50:39.831Z,36.50
2019-03-23T23:53:09.160Z,37.90
2019-03-23T23:55:47.824Z,36.80
2019-03-23T23:58:17.597Z,37.80
